createdAt,value
2019-04-28T00:00:38.664Z,1009.89
2019-04-28T00:01:38.556Z,1009.88
2019-04-28T00:02:38.654Z,1009.92
2019-04-28T00:03:38.533Z,1009.90
2019-04-28T00:04:38.575Z,1009.91
2019-04-28T00:05:38.526Z,1009.93
2019-04-28T00:06:38.578Z,1009.97
2019-04-28T00:07:38.487Z,1009.95
2019-04-28T00:08:38.591Z,1009.96
2019-04-28T00:09:38.466Z,1009.94
2019-04-28T00:10:38.525Z,1009.92
2019-04-28T00:11:38.443Z,1009.88
2019-04-28T00:12:38.515Z,1009.89
2019-04-28T00:13:38.429Z,1009.88
2019-04-28T00:14:38.437Z,1009.92
2019-04-28T00:15:38.412Z,1009.91
2019-04-28T00:16:38.442Z,1009.93
2019-04-28T00:17:38.376Z,1009.91
2019-04-28T00:18:38.458Z,1009.92
2019-04-28T00:19:38.359Z,1009.94
2019-04-28T00:20:38.389Z,1009.96
2019-04-28T00:21:38.333Z,1009.99
2019-04-28T00:22:38.381Z,1009.96
2019-04-28T00:23:38.315Z,1010.00
2019-04-28T00:24:38.396Z,1009.99
2019-04-28T00:25:38.300Z,1010.00
2019-04-28T00:26:38.307Z,1009.97
2019-04-28T00:27:38.268Z,1009.98
2019-04-28T00:28:38.318Z,1009.97
2019-04-28T00:29:41.199Z,1009.92
2019-04-28T00:30:39.277Z,1010.01
2019-04-28T00:31:38.223Z,1010.06
2019-04-28T00:32:38.244Z,1010.00
2019-04-28T00:33:38.200Z,1010.02
2019-04-28T00:34:38.257Z,1009.98
2019-04-28T00:35:38.203Z,1010.02
2019-04-28T00:36:38.273Z,1010.01
2019-04-28T00:37:38.158Z,1010.02
2019-04-28T00:38:45.143Z,1010.01
2019-04-28T00:39:38.133Z,1010.00
2019-04-28T00:40:41.377Z,1009.99
2019-04-28T00:41:38.113Z,1010.00
2019-04-28T00:42:39.132Z,1009.96
2019-04-28T00:43:38.092Z,1009.93
2019-04-28T00:44:38.119Z,1010.01
2019-04-28T00:45:38.079Z,1009.99
2019-04-28T00:46:38.134Z,1010.00
2019-04-28T00:47:38.047Z,1010.00
2019-04-28T00:48:38.149Z,1010.00
2019-04-28T00:49:38.025Z,1010.03
2019-04-28T00:50:38.084Z,1010.02
2019-04-28T00:51:38.010Z,1010.06
2019-04-28T00:52:38.075Z,1010.04
2019-04-28T00:53:37.981Z,1010.06
2019-04-28T00:54:37.992Z,1010.09
2019-04-28T00:55:37.957Z,1010.05
2019-04-28T00:56:38.024Z,1010.12
2019-04-28T00:57:37.936Z,1010.13
2019-04-28T00:58:38.013Z,1010.13
2019-04-28T00:59:50.914Z,1010.20
2019-04-28T01:00:38.909Z,1010.16
2019-04-28T01:01:37.913Z,1010.18
2019-04-28T01:02:37.884Z,1010.22
2019-04-28T01:03:37.948Z,1010.22
2019-04-28T01:04:37.863Z,1010.24
2019-04-28T01:05:37.957Z,1010.22
2019-04-28T01:06:37.848Z,1010.20
2019-04-28T01:07:37.867Z,1010.20
2019-04-28T01:08:37.814Z,1010.23
2019-04-28T01:09:37.885Z,1010.25
2019-04-28T01:10:37.791Z,1010.25
2019-04-28T01:11:37.820Z,1010.31
2019-04-28T01:12:37.769Z,1010.24
2019-04-28T01:13:37.809Z,1010.25
2019-04-28T01:14:37.747Z,1010.29
2019-04-28T01:15:39.534Z,1010.26
2019-04-28T01:16:37.740Z,1010.21
2019-04-28T01:17:39.641Z,1010.27
2019-04-28T01:18:37.704Z,1010.27
2019-04-28T01:19:39.659Z,1010.25
2019-04-28T01:20:39.494Z,1010.23
2019-04-28T01:21:37.787Z,1010.25
2019-04-28T01:22:37.664Z,1010.23
2019-04-28T01:23:40.231Z,1010.23
2019-04-28T01:24:39.635Z,1010.27
2019-04-28T01:25:44.649Z,1010.27
2019-04-28T01:26:39.210Z,1010.25
2019-04-28T01:27:40.187Z,1010.24
2019-04-28T01:28:37.592Z,1010.21
2019-04-28T01:29:37.612Z,1010.23
2019-04-28T01:30:37.570Z,1010.25
2019-04-28T01:31:39.535Z,1010.25
2019-04-28T01:32:37.549Z,1010.27
2019-04-28T01:33:37.638Z,1010.20
2019-04-28T01:34:37.526Z,1010.27
2019-04-28T01:35:39.184Z,1010.26
2019-04-28T01:36:37.514Z,1010.26
2019-04-28T01:37:37.564Z,1010.25
2019-04-28T01:38:37.481Z,1010.29
2019-04-28T01:39:41.023Z,1010.30
2019-04-28T01:40:37.461Z,1010.31
2019-04-28T01:41:39.567Z,1010.32
2019-04-28T01:42:37.437Z,1010.32
2019-04-28T01:43:37.500Z,1010.29
2019-04-28T01:44:39.345Z,1010.33
2019-04-28T01:45:37.518Z,1010.32
2019-04-28T01:46:37.404Z,1010.33
2019-04-28T01:47:37.430Z,1010.30
2019-04-28T01:48:37.370Z,1010.33
2019-04-28T01:49:37.442Z,1010.35
2019-04-28T01:50:37.352Z,1010.32
2019-04-28T01:51:37.376Z,1010.35
2019-04-28T01:52:37.326Z,1010.30
2019-04-28T01:53:37.368Z,1010.35
2019-04-28T01:54:37.303Z,1010.30
2019-04-28T01:55:37.379Z,1010.36
2019-04-28T01:56:37.296Z,1010.33
2019-04-28T01:57:37.290Z,1010.31
2019-04-28T01:58:37.259Z,1010.33
2019-04-28T01:59:37.305Z,1010.32
2019-04-28T02:00:37.241Z,1010.33
2019-04-28T02:01:37.342Z,1010.34
2019-04-28T02:02:37.220Z,1010.30
2019-04-28T02:03:37.249Z,1010.35
2019-04-28T02:04:37.198Z,1010.33
2019-04-28T02:05:37.241Z,1010.31
2019-04-28T02:06:37.188Z,1010.35
2019-04-28T02:07:45.141Z,1010.37
2019-04-28T02:08:37.150Z,1010.34
2019-04-28T02:09:45.154Z,1010.37
2019-04-28T02:10:37.128Z,1010.35
2019-04-28T02:11:41.162Z,1010.34
2019-04-28T02:12:37.106Z,1010.37
2019-04-28T02:13:39.803Z,1010.39
2019-04-28T02:14:37.084Z,1010.39
2019-04-28T02:15:37.109Z,1010.44
2019-04-28T02:16:37.087Z,1010.45
2019-04-28T02:17:37.122Z,1010.40
2019-04-28T02:18:37.040Z,1010.43
2019-04-28T02:19:37.136Z,1010.45
2019-04-28T02:20:37.019Z,1010.44
2019-04-28T02:21:37.045Z,1010.39
2019-04-28T02:22:37.007Z,1010.39
2019-04-28T02:23:37.074Z,1010.38
2019-04-28T02:24:36.978Z,1010.46
2019-04-28T02:25:37.075Z,1010.37
2019-04-28T02:26:36.952Z,1010.45
2019-04-28T02:27:37.011Z,1010.41
2019-04-28T02:28:36.929Z,1010.40
2019-04-28T02:29:37.005Z,1010.46
2019-04-28T02:30:45.310Z,1010.45
2019-04-28T02:31:37.896Z,1010.39
2019-04-28T02:32:36.943Z,1010.43
2019-04-28T02:33:36.876Z,1010.45
2019-04-28T02:34:36.932Z,1010.43
2019-04-28T02:35:36.897Z,1010.47
2019-04-28T02:36:36.951Z,1010.45
2019-04-28T02:37:36.859Z,1010.47
2019-04-28T02:38:36.856Z,1010.47
2019-04-28T02:39:36.813Z,1010.52
2019-04-28T02:40:36.870Z,1010.55
2019-04-28T02:41:36.787Z,1010.58
2019-04-28T02:42:36.805Z,1010.51
2019-04-28T02:43:36.777Z,1010.54
2019-04-28T02:44:36.793Z,1010.59
2019-04-28T02:45:36.750Z,1010.58
2019-04-28T02:46:36.815Z,1010.56
2019-04-28T02:47:36.737Z,1010.60
2019-04-28T02:48:36.834Z,1010.56
2019-04-28T02:49:36.702Z,1010.61
2019-04-28T02:50:36.735Z,1010.61
2019-04-28T02:51:36.681Z,1010.63
2019-04-28T02:52:41.451Z,1010.63
2019-04-28T02:53:36.658Z,1010.59
2019-04-28T02:54:44.650Z,1010.61
2019-04-28T02:55:36.636Z,1010.61
2019-04-28T02:56:52.649Z,1010.60
2019-04-28T02:57:36.633Z,1010.62
2019-04-28T02:58:41.331Z,1010.65
2019-04-28T02:59:36.593Z,1010.64
2019-04-28T03:00:36.601Z,1010.64
2019-04-28T03:01:36.571Z,1010.65
2019-04-28T03:02:36.636Z,1010.66
2019-04-28T03:03:36.550Z,1010.69
2019-04-28T03:04:36.625Z,1010.70
2019-04-28T03:05:36.531Z,1010.74
2019-04-28T03:06:36.539Z,1010.71
2019-04-28T03:07:36.522Z,1010.76
2019-04-28T03:08:36.565Z,1010.75
2019-04-28T03:09:36.488Z,1010.74
2019-04-28T03:10:36.567Z,1010.77
2019-04-28T03:11:36.477Z,1010.69
2019-04-28T03:12:36.503Z,1010.76
2019-04-28T03:13:36.442Z,1010.72
2019-04-28T03:14:36.491Z,1010.74
2019-04-28T03:15:36.421Z,1010.74
2019-04-28T03:16:36.504Z,1010.71
2019-04-28T03:17:36.410Z,1010.74
2019-04-28T03:18:36.430Z,1010.73
2019-04-28T03:19:36.376Z,1010.77
2019-04-28T03:20:36.426Z,1010.78
2019-04-28T03:21:36.354Z,1010.76
2019-04-28T03:22:36.470Z,1010.74
2019-04-28T03:23:36.332Z,1010.77
2019-04-28T03:24:36.352Z,1010.75
2019-04-28T03:25:36.308Z,1010.79
2019-04-28T03:26:36.372Z,1010.82
2019-04-28T03:27:36.314Z,1010.77
2019-04-28T03:28:36.382Z,1010.82
2019-04-28T03:29:36.268Z,1010.81
2019-04-28T03:30:36.290Z,1010.79
2019-04-28T03:32:01.204Z,1010.75
2019-04-28T03:32:47.437Z,1010.77
2019-04-28T03:33:43.533Z,1010.82
2019-04-28T03:34:37.209Z,1010.79
2019-04-28T03:35:36.226Z,1010.79
2019-04-28T03:36:36.189Z,1010.75
2019-04-28T03:37:37.288Z,1010.79
2019-04-28T03:38:36.184Z,1010.77
2019-04-28T03:39:53.156Z,1010.80
2019-04-28T03:40:36.142Z,1010.78
2019-04-28T03:41:44.150Z,1010.81
2019-04-28T03:42:36.139Z,1010.79
2019-04-28T03:43:37.119Z,1010.80
2019-04-28T03:44:36.100Z,1010.80
2019-04-28T03:45:37.114Z,1010.84
2019-04-28T03:46:36.077Z,1010.83
2019-04-28T03:47:36.128Z,1010.84
2019-04-28T03:48:36.054Z,1010.88
2019-04-28T03:49:36.120Z,1010.88
2019-04-28T03:50:36.033Z,1010.91
2019-04-28T03:51:36.129Z,1010.87
2019-04-28T03:52:36.011Z,1010.88
2019-04-28T03:53:36.069Z,1010.84
2019-04-28T03:54:35.990Z,1010.87
2019-04-28T03:55:36.055Z,1010.87
2019-04-28T03:56:35.975Z,1010.91
2019-04-28T03:57:36.069Z,1010.90
2019-04-28T03:58:35.957Z,1010.85
2019-04-28T03:59:35.984Z,1010.89
2019-04-28T04:00:35.922Z,1010.88
2019-04-28T04:01:52.163Z,1010.90
2019-04-28T04:02:36.900Z,1010.93
2019-04-28T04:03:35.932Z,1010.91
2019-04-28T04:04:35.878Z,1010.94
2019-04-28T04:05:35.921Z,1010.88
2019-04-28T04:06:35.857Z,1010.89
2019-04-28T04:07:35.935Z,1010.94
2019-04-28T04:08:35.849Z,1010.87
2019-04-28T04:09:35.842Z,1010.93
2019-04-28T04:10:35.810Z,1010.87
2019-04-28T04:11:35.857Z,1010.89
2019-04-28T04:12:35.794Z,1010.86
2019-04-28T04:13:35.897Z,1010.86
2019-04-28T04:14:35.772Z,1010.87
2019-04-28T04:15:35.781Z,1010.87
2019-04-28T04:16:35.745Z,1010.89
2019-04-28T04:17:35.795Z,1010.86
2019-04-28T04:18:35.736Z,1010.85
2019-04-28T04:19:35.808Z,1010.91
2019-04-28T04:20:35.700Z,1010.89
2019-04-28T04:21:35.725Z,1010.97
2019-04-28T04:22:35.678Z,1010.88
2019-04-28T04:23:37.725Z,1010.87
2019-04-28T04:24:35.660Z,1010.90
2019-04-28T04:25:36.671Z,1010.89
2019-04-28T04:26:35.642Z,1010.90
2019-04-28T04:27:36.696Z,1010.91
2019-04-28T04:28:35.626Z,1010.95
2019-04-28T04:29:43.756Z,1010.94
2019-04-28T04:30:35.598Z,1010.95
2019-04-28T04:31:35.689Z,1010.95
2019-04-28T04:32:35.568Z,1010.92
2019-04-28T04:33:35.626Z,1011.00
2019-04-28T04:34:35.545Z,1010.95
2019-04-28T04:35:35.616Z,1010.99
2019-04-28T04:36:35.535Z,1010.99
2019-04-28T04:37:35.628Z,1011.03
2019-04-28T04:38:35.518Z,1010.96
2019-04-28T04:39:35.640Z,1011.01
2019-04-28T04:40:35.482Z,1010.98
2019-04-28T04:41:35.473Z,1011.04
2019-04-28T04:42:35.456Z,1011.04
2019-04-28T04:43:35.489Z,1011.06
2019-04-28T04:44:38.000Z,1011.02
2019-04-28T04:45:36.505Z,1011.04
2019-04-28T04:46:35.413Z,1011.05
2019-04-28T04:47:35.494Z,1011.07
2019-04-28T04:48:35.405Z,1011.04
2019-04-28T04:49:35.405Z,1011.12
2019-04-28T04:50:35.372Z,1011.12
2019-04-28T04:51:35.360Z,1011.15
2019-04-28T04:52:35.350Z,1011.14
2019-04-28T04:53:35.454Z,1011.12
2019-04-28T04:54:36.830Z,1011.17
2019-04-28T04:55:35.340Z,1011.18
2019-04-28T04:56:35.301Z,1011.16
2019-04-28T04:57:35.352Z,1011.16
2019-04-28T04:58:35.295Z,1011.20
2019-04-28T04:59:35.369Z,1011.19
2019-04-28T05:00:35.259Z,1011.19
2019-04-28T05:01:35.279Z,1011.26
2019-04-28T05:02:35.234Z,1011.24
2019-04-28T05:03:35.324Z,1011.24
2019-04-28T05:04:35.211Z,1011.25
2019-04-28T05:05:35.305Z,1011.22
2019-04-28T05:06:35.193Z,1011.25
2019-04-28T05:07:35.223Z,1011.29
2019-04-28T05:08:35.206Z,1011.28
2019-04-28T05:09:59.541Z,1011.30
2019-04-28T05:10:35.147Z,1011.32
2019-04-28T05:11:44.152Z,1011.33
2019-04-28T05:12:35.125Z,1011.35
2019-04-28T05:13:35.154Z,1011.33
2019-04-28T05:14:35.116Z,1011.32
2019-04-28T05:15:37.117Z,1011.36
2019-04-28T05:16:35.079Z,1011.34
2019-04-28T05:17:36.104Z,1011.36
2019-04-28T05:18:35.056Z,1011.43
2019-04-28T05:19:35.122Z,1011.34
2019-04-28T05:20:35.032Z,1011.36
2019-04-28T05:21:35.109Z,1011.42
2019-04-28T05:22:35.012Z,1011.42
2019-04-28T05:23:35.022Z,1011.39
2019-04-28T05:24:35.005Z,1011.43
2019-04-28T05:25:35.032Z,1011.40
2019-04-28T05:26:34.969Z,1011.40
2019-04-28T05:27:35.046Z,1011.43
2019-04-28T05:28:36.850Z,1011.36
2019-04-28T05:29:36.007Z,1011.39
2019-04-28T05:30:38.894Z,1011.42
2019-04-28T05:31:35.995Z,1011.46
2019-04-28T05:32:43.210Z,1011.48
2019-04-28T05:33:35.886Z,1011.46
2019-04-28T05:34:34.918Z,1011.47
2019-04-28T05:35:35.789Z,1011.52
2019-04-28T05:36:41.184Z,1011.54
2019-04-28T05:37:35.845Z,1011.53
2019-04-28T05:38:34.920Z,1011.48
2019-04-28T05:39:37.699Z,1011.52
2019-04-28T05:40:34.830Z,1011.50
2019-04-28T05:41:34.800Z,1011.56
2019-04-28T05:42:34.847Z,1011.52
2019-04-28T05:43:34.782Z,1011.54
2019-04-28T05:44:37.491Z,1011.52
2019-04-28T05:45:34.762Z,1011.48
2019-04-28T05:46:34.766Z,1011.55
2019-04-28T05:47:34.733Z,1011.52
2019-04-28T05:48:34.779Z,1011.53
2019-04-28T05:49:34.729Z,1011.57
2019-04-28T05:50:34.794Z,1011.57
2019-04-28T05:51:34.695Z,1011.61
2019-04-28T05:52:34.705Z,1011.65
2019-04-28T05:53:34.668Z,1011.62
2019-04-28T05:54:40.339Z,1011.64
2019-04-28T05:55:34.645Z,1011.66
2019-04-28T05:56:35.655Z,1011.65
2019-04-28T05:57:34.625Z,1011.72
2019-04-28T05:58:34.648Z,1011.74
2019-04-28T05:59:34.615Z,1011.73
2019-04-28T06:00:51.146Z,1011.73
2019-04-28T06:01:34.579Z,1011.77
2019-04-28T06:02:35.599Z,1011.78
2019-04-28T06:03:34.565Z,1011.80
2019-04-28T06:04:34.610Z,1011.80
2019-04-28T06:05:34.535Z,1011.82
2019-04-28T06:06:34.599Z,1011.75
2019-04-28T06:07:34.514Z,1011.82
2019-04-28T06:08:34.611Z,1011.75
2019-04-28T06:09:34.511Z,1011.79
2019-04-28T06:10:34.525Z,1011.81
2019-04-28T06:11:34.469Z,1011.75
2019-04-28T06:12:34.547Z,1011.83
2019-04-28T06:13:34.455Z,1011.86
2019-04-28T06:14:34.475Z,1011.76
2019-04-28T06:15:34.424Z,1011.88
2019-04-28T06:16:34.459Z,1011.90
2019-04-28T06:17:34.402Z,1011.91
2019-04-28T06:18:34.474Z,1011.95
2019-04-28T06:19:34.394Z,1011.95
2019-04-28T06:20:34.385Z,1012.01
2019-04-28T06:21:34.357Z,1012.02
2019-04-28T06:22:34.401Z,1012.01
2019-04-28T06:23:34.339Z,1012.00
2019-04-28T06:24:34.441Z,1011.99
2019-04-28T06:25:34.334Z,1011.95
2019-04-28T06:26:34.326Z,1012.01
2019-04-28T06:27:34.291Z,1012.01
2019-04-28T06:28:34.337Z,1012.03
2019-04-28T06:29:34.287Z,1012.01
2019-04-28T06:30:34.355Z,1012.02
2019-04-28T06:31:34.245Z,1012.02
2019-04-28T06:32:34.263Z,1012.04
2019-04-28T06:33:34.224Z,1012.06
2019-04-28T06:34:34.316Z,1012.02
2019-04-28T06:35:34.200Z,1012.03
2019-04-28T06:36:34.294Z,1012.06
2019-04-28T06:37:34.178Z,1012.09
2019-04-28T06:38:42.193Z,1012.10
2019-04-28T06:39:34.187Z,1012.16
2019-04-28T06:40:36.313Z,1012.14
2019-04-28T06:41:34.134Z,1012.13
2019-04-28T06:42:35.149Z,1012.14
2019-04-28T06:43:34.113Z,1012.14
2019-04-28T06:44:34.140Z,1012.18
2019-04-28T06:45:34.106Z,1012.17
2019-04-28T06:46:34.151Z,1012.17
2019-04-28T06:47:34.070Z,1012.25
2019-04-28T06:48:34.064Z,1012.24
2019-04-28T06:49:34.044Z,1012.21
2019-04-28T06:50:34.110Z,1012.23
2019-04-28T06:51:34.023Z,1012.27
2019-04-28T06:52:34.093Z,1012.26
2019-04-28T06:53:34.001Z,1012.25
2019-04-28T06:54:34.002Z,1012.22
2019-04-28T06:55:33.993Z,1012.30
2019-04-28T06:56:34.016Z,1012.28
2019-04-28T06:57:33.956Z,1012.31
2019-04-28T06:58:34.036Z,1012.32
2019-04-28T06:59:33.939Z,1012.29
2019-04-28T07:00:33.972Z,1012.34
2019-04-28T07:01:33.912Z,1012.33
2019-04-28T07:02:33.962Z,1012.38
2019-04-28T07:03:33.888Z,1012.38
2019-04-28T07:04:33.969Z,1012.39
2019-04-28T07:05:33.879Z,1012.42
2019-04-28T07:06:33.881Z,1012.43
2019-04-28T07:07:33.842Z,1012.34
2019-04-28T07:08:33.896Z,1012.40
2019-04-28T07:09:33.821Z,1012.38
2019-04-28T07:10:33.837Z,1012.40
2019-04-28T07:11:33.798Z,1012.39
2019-04-28T07:12:33.791Z,1012.41
2019-04-28T07:13:33.777Z,1012.42
2019-04-28T07:14:33.835Z,1012.41
2019-04-28T07:15:33.791Z,1012.42
2019-04-28T07:16:33.848Z,1012.43
2019-04-28T07:17:33.733Z,1012.46
2019-04-28T07:18:33.756Z,1012.42
2019-04-28T07:19:33.710Z,1012.43
2019-04-28T07:20:33.804Z,1012.49
2019-04-28T07:21:33.690Z,1012.46
2019-04-28T07:22:33.786Z,1012.47
2019-04-28T07:23:33.668Z,1012.44
2019-04-28T07:24:48.650Z,1012.48
2019-04-28T07:25:33.658Z,1012.57
2019-04-28T07:27:09.659Z,1012.55
2019-04-28T07:27:33.628Z,1012.57
2019-04-28T07:28:34.648Z,1012.58
2019-04-28T07:29:33.602Z,1012.60
2019-04-28T07:30:33.669Z,1012.59
2019-04-28T07:31:33.578Z,1012.59
2019-04-28T07:32:33.655Z,1012.62
2019-04-28T07:33:36.242Z,1012.58
2019-04-28T07:34:33.562Z,1012.60
2019-04-28T07:35:33.548Z,1012.60
2019-04-28T07:36:33.577Z,1012.58
2019-04-28T07:37:33.513Z,1012.59
2019-04-28T07:38:33.591Z,1012.59
2019-04-28T07:39:33.495Z,1012.56
2019-04-28T07:40:33.534Z,1012.59
2019-04-28T07:41:33.467Z,1012.61
2019-04-28T07:42:33.518Z,1012.59
2019-04-28T07:43:33.447Z,1012.60
2019-04-28T07:44:33.540Z,1012.60
2019-04-28T07:45:33.439Z,1012.67
2019-04-28T07:46:33.445Z,1012.67
2019-04-28T07:47:33.403Z,1012.75
2019-04-28T07:48:33.455Z,1012.74
2019-04-28T07:49:33.385Z,1012.74
2019-04-28T07:50:33.556Z,1012.73
2019-04-28T07:51:33.356Z,1012.80
2019-04-28T07:52:33.382Z,1012.79
2019-04-28T07:53:33.333Z,1012.80
2019-04-28T07:54:33.391Z,1012.77
2019-04-28T07:55:33.331Z,1012.79
2019-04-28T07:56:33.404Z,1012.83
2019-04-28T07:57:33.289Z,1012.84
2019-04-28T07:58:33.318Z,1012.79
2019-04-28T07:59:33.267Z,1012.85
2019-04-28T08:00:33.363Z,1012.85
2019-04-28T08:01:33.243Z,1012.83
2019-04-28T08:02:33.347Z,1012.89
2019-04-28T08:03:33.221Z,1012.90
2019-04-28T08:04:33.258Z,1012.90
2019-04-28T08:05:33.197Z,1012.92
2019-04-28T08:06:33.303Z,1012.94
2019-04-28T08:07:33.175Z,1012.93
2019-04-28T08:08:40.144Z,1012.96
2019-04-28T08:09:33.152Z,1012.95
2019-04-28T08:10:48.146Z,1012.96
2019-04-28T08:11:33.145Z,1012.93
2019-04-28T08:12:35.154Z,1012.93
2019-04-28T08:13:33.112Z,1012.96
2019-04-28T08:14:33.122Z,1012.96
2019-04-28T08:15:33.088Z,1012.94
2019-04-28T08:16:33.168Z,1012.92
2019-04-28T08:17:33.065Z,1012.97
2019-04-28T08:18:33.147Z,1012.98
2019-04-28T08:19:33.043Z,1013.02
2019-04-28T08:20:33.059Z,1012.95
2019-04-28T08:21:33.034Z,1012.96
2019-04-28T08:22:33.073Z,1012.99
2019-04-28T08:23:32.998Z,1012.99
2019-04-28T08:24:33.086Z,1013.03
2019-04-28T08:25:32.975Z,1012.99
2019-04-28T08:26:33.029Z,1013.03
2019-04-28T08:27:32.955Z,1013.04
2019-04-28T08:28:33.009Z,1013.06
2019-04-28T08:29:32.931Z,1013.03
2019-04-28T08:30:33.043Z,1013.09
2019-04-28T08:31:32.928Z,1013.08
2019-04-28T08:32:32.935Z,1013.13
2019-04-28T08:33:33.353Z,1013.10
2019-04-28T08:34:32.953Z,1013.07
2019-04-28T08:35:32.867Z,1013.13
2019-04-28T08:36:32.894Z,1013.17
2019-04-28T08:37:32.843Z,1013.15
2019-04-28T08:38:32.876Z,1013.16
2019-04-28T08:39:32.818Z,1013.20
2019-04-28T08:40:32.890Z,1013.16
2019-04-28T08:41:32.812Z,1013.18
2019-04-28T08:42:32.801Z,1013.16
2019-04-28T08:43:32.776Z,1013.18
2019-04-28T08:44:32.814Z,1013.16
2019-04-28T08:45:32.756Z,1013.19
2019-04-28T08:46:32.859Z,1013.22
2019-04-28T08:47:32.735Z,1013.19
2019-04-28T08:48:32.749Z,1013.22
2019-04-28T08:49:32.711Z,1013.27
2019-04-28T08:50:32.752Z,1013.26
2019-04-28T08:51:32.701Z,1013.26
2019-04-28T08:52:32.767Z,1013.22
2019-04-28T08:53:32.662Z,1013.24
2019-04-28T08:54:32.680Z,1013.23
2019-04-28T08:55:32.639Z,1013.20
2019-04-28T08:56:32.724Z,1013.21
2019-04-28T08:57:32.618Z,1013.19
2019-04-28T08:58:32.705Z,1013.21
2019-04-28T08:59:32.601Z,1013.21
2019-04-28T09:00:32.620Z,1013.20
2019-04-28T09:01:32.586Z,1013.21
2019-04-28T09:02:32.632Z,1013.23
2019-04-28T09:03:32.551Z,1013.21
2019-04-28T09:04:32.647Z,1013.27
2019-04-28T09:05:32.530Z,1013.31
2019-04-28T09:06:32.586Z,1013.30
2019-04-28T09:07:32.506Z,1013.35
2019-04-28T09:08:32.570Z,1013.29
2019-04-28T09:09:32.486Z,1013.30
2019-04-28T09:10:32.583Z,1013.31
2019-04-28T09:11:32.475Z,1013.30
2019-04-28T09:12:32.498Z,1013.31
2019-04-28T09:13:32.442Z,1013.33
2019-04-28T09:14:32.512Z,1013.34
2019-04-28T09:15:32.417Z,1013.33
2019-04-28T09:16:32.453Z,1013.32
2019-04-28T09:17:32.395Z,1013.36
2019-04-28T09:18:32.476Z,1013.41
2019-04-28T09:19:32.374Z,1013.36
2019-04-28T09:20:32.447Z,1013.34
2019-04-28T09:21:32.368Z,1013.34
2019-04-28T09:22:32.357Z,1013.32
2019-04-28T09:23:32.328Z,1013.34
2019-04-28T09:24:32.370Z,1013.35
2019-04-28T09:25:32.310Z,1013.36
2019-04-28T09:26:32.419Z,1013.36
2019-04-28T09:27:32.286Z,1013.41
2019-04-28T09:28:32.312Z,1013.38
2019-04-28T09:29:32.261Z,1013.40
2019-04-28T09:30:32.315Z,1013.37
2019-04-28T09:31:32.251Z,1013.39
2019-04-28T09:32:32.325Z,1013.39
2019-04-28T09:33:32.217Z,1013.47
2019-04-28T09:34:32.236Z,1013.42
2019-04-28T09:35:32.195Z,1013.45
2019-04-28T09:36:36.687Z,1013.46
2019-04-28T09:37:32.174Z,1013.43
2019-04-28T09:38:49.167Z,1013.46
2019-04-28T09:39:32.151Z,1013.44
2019-04-28T09:40:40.162Z,1013.47
2019-04-28T09:41:32.142Z,1013.50
2019-04-28T09:42:32.197Z,1013.54
2019-04-28T09:43:32.106Z,1013.48
2019-04-28T09:44:33.125Z,1013.49
2019-04-28T09:45:32.085Z,1013.50
2019-04-28T09:46:32.145Z,1013.51
2019-04-28T09:47:32.063Z,1013.57
2019-04-28T09:48:32.126Z,1013.57
2019-04-28T09:49:32.046Z,1013.55
2019-04-28T09:50:32.140Z,1013.56
2019-04-28T09:51:32.031Z,1013.51
2019-04-28T09:52:32.049Z,1013.54
2019-04-28T09:53:31.996Z,1013.54
2019-04-28T09:54:32.067Z,1013.65
2019-04-28T09:55:31.976Z,1013.51
2019-04-28T09:56:32.012Z,1013.52
2019-04-28T09:57:31.955Z,1013.53
2019-04-28T09:58:31.991Z,1013.54
2019-04-28T09:59:31.931Z,1013.57
2019-04-28T10:00:32.005Z,1013.59
2019-04-28T10:01:31.909Z,1013.57
2019-04-28T10:02:31.950Z,1013.60
2019-04-28T10:03:31.886Z,1013.76
2019-04-28T10:04:41.399Z,1013.59
2019-04-28T10:05:32.864Z,1013.53
2019-04-28T10:06:31.951Z,1013.59
2019-04-28T10:07:31.860Z,1013.60
2019-04-28T10:08:31.853Z,1013.61
2019-04-28T10:09:31.819Z,1013.63
2019-04-28T10:10:31.867Z,1013.59
2019-04-28T10:11:31.798Z,1013.59
2019-04-28T10:12:31.913Z,1013.63
2019-04-28T10:13:31.776Z,1013.70
2019-04-28T10:14:31.793Z,1013.57
2019-04-28T10:15:31.752Z,1013.62
2019-04-28T10:16:31.764Z,1013.58
2019-04-28T10:17:31.745Z,1013.58
2019-04-28T10:18:31.821Z,1013.60
2019-04-28T10:19:32.710Z,1013.62
2019-04-28T10:20:31.734Z,1013.67
2019-04-28T10:21:31.687Z,1013.68
2019-04-28T10:22:36.188Z,1013.73
2019-04-28T10:23:31.663Z,1013.68
2019-04-28T10:24:32.681Z,1013.74
2019-04-28T10:25:31.644Z,1013.68
2019-04-28T10:26:31.669Z,1013.73
2019-04-28T10:27:31.635Z,1013.71
2019-04-28T10:28:32.711Z,1013.71
2019-04-28T10:29:33.013Z,1013.66
2019-04-28T10:30:32.622Z,1013.69
2019-04-28T10:31:31.575Z,1013.68
2019-04-28T10:32:31.640Z,1013.70
2019-04-28T10:33:31.567Z,1013.74
2019-04-28T10:34:31.624Z,1013.75
2019-04-28T10:35:31.531Z,1013.80
2019-04-28T10:36:31.533Z,1013.77
2019-04-28T10:37:31.522Z,1013.82
2019-04-28T10:38:31.552Z,1013.81
2019-04-28T10:39:31.491Z,1013.78
2019-04-28T10:40:31.561Z,1013.78
2019-04-28T10:41:31.469Z,1013.71
2019-04-28T10:42:31.506Z,1013.70
2019-04-28T10:43:31.443Z,1013.70
2019-04-28T10:44:31.488Z,1013.78
2019-04-28T10:45:31.427Z,1013.71
2019-04-28T10:46:31.500Z,1013.79
2019-04-28T10:47:31.417Z,1013.79
2019-04-28T10:48:31.411Z,1013.75
2019-04-28T10:49:31.379Z,1013.70
2019-04-28T10:50:32.458Z,1013.70
2019-04-28T10:51:31.355Z,1013.72
2019-04-28T10:52:31.471Z,1013.76
2019-04-28T10:53:31.333Z,1013.71
2019-04-28T10:54:31.350Z,1013.73
2019-04-28T10:55:31.311Z,1013.74
2019-04-28T10:56:31.363Z,1013.72
2019-04-28T10:57:31.322Z,1013.77
2019-04-28T10:58:31.379Z,1013.68
2019-04-28T10:59:31.267Z,1013.70
2019-04-28T11:00:31.287Z,1013.71
2019-04-28T11:01:31.243Z,1013.71
2019-04-28T11:02:31.305Z,1013.77
2019-04-28T11:03:31.240Z,1013.73
2019-04-28T11:04:31.319Z,1013.72
2019-04-28T11:05:31.200Z,1013.76
2019-04-28T11:06:32.252Z,1013.73
2019-04-28T11:07:31.179Z,1013.74
2019-04-28T11:08:34.757Z,1013.78
2019-04-28T11:09:31.159Z,1013.77
2019-04-28T11:10:32.177Z,1013.79
2019-04-28T11:11:31.134Z,1013.78
2019-04-28T11:12:31.166Z,1013.83
2019-04-28T11:13:31.129Z,1013.86
2019-04-28T11:14:31.185Z,1013.85
2019-04-28T11:15:31.092Z,1013.80
2019-04-28T11:16:32.115Z,1013.86
2019-04-28T11:17:31.069Z,1013.84
2019-04-28T11:18:31.137Z,1013.91
2019-04-28T11:19:31.047Z,1013.86
2019-04-28T11:20:31.125Z,1013.86
2019-04-28T11:21:31.027Z,1013.82
2019-04-28T11:22:31.032Z,1013.89
2019-04-28T11:23:31.032Z,1013.90
2019-04-28T11:24:31.055Z,1013.89
2019-04-28T11:25:30.993Z,1013.94
2019-04-28T11:26:31.060Z,1013.92
2019-04-28T11:27:30.961Z,1013.95
2019-04-28T11:28:31.002Z,1013.97
2019-04-28T11:29:30.955Z,1013.95
2019-04-28T11:30:39.687Z,1014.02
2019-04-28T11:31:31.656Z,1014.04
2019-04-28T11:32:30.998Z,1014.01
2019-04-28T11:33:30.933Z,1013.98
2019-04-28T11:34:30.936Z,1014.07
2019-04-28T11:35:30.867Z,1014.07
2019-04-28T11:36:30.938Z,1014.04
2019-04-28T11:37:30.844Z,1014.10
2019-04-28T11:38:30.865Z,1014.05
2019-04-28T11:39:30.822Z,1014.11
2019-04-28T11:40:30.845Z,1014.04
2019-04-28T11:41:30.800Z,1014.03
2019-04-28T11:42:30.862Z,1014.11
2019-04-28T11:43:30.793Z,1014.17
2019-04-28T11:44:30.926Z,1014.16
2019-04-28T11:45:30.754Z,1014.12
2019-04-28T11:46:30.786Z,1014.19
2019-04-28T11:47:30.731Z,1014.17
2019-04-28T11:48:30.834Z,1014.21
2019-04-28T11:49:30.722Z,1014.17
2019-04-28T11:50:32.762Z,1014.14
2019-04-28T11:51:30.685Z,1014.13
2019-04-28T11:52:37.689Z,1014.14
2019-04-28T11:53:30.678Z,1014.15
2019-04-28T11:54:32.684Z,1014.16
2019-04-28T11:55:30.643Z,1014.21
2019-04-28T11:56:40.785Z,1014.13
2019-04-28T11:57:31.616Z,1014.19
2019-04-28T11:58:30.699Z,1014.18
2019-04-28T11:59:30.600Z,1014.16
2019-04-28T12:00:30.680Z,1014.23
2019-04-28T12:01:30.573Z,1014.22
2019-04-28T12:02:30.592Z,1014.22
2019-04-28T12:03:30.566Z,1014.25
2019-04-28T12:04:30.610Z,1014.27
2019-04-28T12:05:34.690Z,1014.26